createdAt,value
2022-08-25T00:01:41.081Z,20.38
2022-08-25T00:04:11.313Z,20.28
2022-08-25T00:06:41.273Z,20.20
2022-08-25T00:09:09.300Z,20.08
2022-08-25T00:11:37.574Z,20.04
2022-08-25T00:14:17.312Z,19.89
2022-08-25T00:16:44.330Z,19.81
2022-08-25T00:19:17.455Z,19.73
2022-08-25T00:21:45.222Z,19.93
2022-08-25T00:24:12.803Z,19.63
2022-08-25T00:26:42.495Z,19.27
2022-08-25T00:29:11.021Z,19.17
2022-08-25T00:31:39.272Z,19.33
2022-08-25T00:34:14.585Z,19.56
2022-08-25T00:36:41.833Z,19.61
2022-08-25T00:39:09.352Z,19.70
2022-08-25T00:41:38.128Z,19.70
2022-08-25T00:44:08.429Z,19.69
2022-08-25T00:46:42.313Z,19.74
2022-08-25T00:49:25.002Z,19.82
2022-08-25T00:51:59.108Z,19.69
2022-08-25T00:54:31.544Z,19.71
2022-08-25T00:57:01.201Z,19.62
2022-08-25T00:59:28.797Z,19.65
2022-08-25T01:01:56.515Z,19.61
2022-08-25T01:04:23.842Z,19.63
2022-08-25T01:06:50.441Z,19.59
2022-08-25T01:09:19.495Z,19.57
2022-08-25T01:11:47.761Z,19.55
2022-08-25T01:14:17.929Z,19.33
2022-08-25T01:16:45.253Z,19.43
2022-08-25T01:19:15.497Z,19.40
2022-08-25T01:21:46.077Z,19.23
2022-08-25T01:24:25.721Z,19.27
2022-08-25T01:26:52.468Z,19.28
2022-08-25T01:29:21.606Z,19.25
2022-08-25T01:31:50.295Z,19.25
2022-08-25T01:34:19.912Z,19.30
2022-08-25T01:36:46.532Z,19.21
2022-08-25T01:39:13.901Z,19.17
2022-08-25T01:41:48.916Z,19.20
2022-08-25T01:44:18.638Z,19.03
2022-08-25T01:46:45.304Z,18.71
2022-08-25T01:49:12.151Z,18.83
2022-08-25T01:51:44.781Z,18.72
2022-08-25T01:54:11.405Z,18.60
2022-08-25T01:56:38.740Z,18.73
2022-08-25T01:59:05.557Z,18.82
2022-08-25T02:01:32.561Z,18.88
2022-08-25T02:03:59.726Z,18.88
2022-08-25T02:06:30.217Z,18.94
2022-08-25T02:09:05.306Z,18.90
2022-08-25T02:11:32.952Z,18.84
2022-08-25T02:14:00.557Z,18.86
2022-08-25T02:16:31.867Z,18.75
2022-08-25T02:18:59.385Z,18.30
2022-08-25T02:21:27.078Z,18.36
2022-08-25T02:23:54.385Z,18.42
2022-08-25T02:26:21.162Z,18.41
2022-08-25T02:28:49.283Z,18.21
2022-08-25T02:31:17.704Z,18.25
2022-08-25T02:33:44.580Z,18.37
2022-08-25T02:36:11.866Z,18.32
2022-08-25T02:38:39.269Z,18.15
2022-08-25T02:41:14.017Z,18.32
2022-08-25T02:43:43.169Z,18.25
2022-08-25T02:46:12.129Z,18.35
2022-08-25T02:48:39.676Z,18.29
2022-08-25T02:51:08.824Z,18.09
2022-08-25T02:53:40.804Z,18.17
2022-08-25T02:56:10.119Z,18.37
2022-08-25T02:58:38.878Z,18.25
2022-08-25T03:01:05.986Z,18.33
2022-08-25T03:03:36.353Z,18.36
2022-08-25T03:06:07.021Z,18.65
2022-08-25T03:08:33.765Z,18.38
2022-08-25T03:11:00.554Z,18.30
2022-08-25T03:13:27.213Z,18.29
2022-08-25T03:15:54.462Z,18.37
2022-08-25T03:18:23.117Z,18.27
2022-08-25T03:20:51.225Z,18.37
2022-08-25T03:23:17.833Z,18.40
2022-08-25T03:26:03.174Z,18.41
2022-08-25T03:28:33.121Z,18.42
2022-08-25T03:31:01.264Z,18.40
2022-08-25T03:33:30.254Z,18.28
2022-08-25T03:35:57.601Z,18.32
2022-08-25T03:38:25.430Z,18.33
2022-08-25T03:40:52.505Z,18.33
2022-08-25T03:43:19.521Z,18.32
2022-08-25T03:45:47.218Z,18.32
2022-08-25T03:48:15.270Z,18.30
2022-08-25T03:50:51.729Z,18.36
2022-08-25T03:53:20.114Z,18.33
2022-08-25T03:55:47.500Z,18.28
2022-08-25T03:58:14.570Z,18.27
2022-08-25T04:00:42.163Z,18.25
2022-08-25T04:03:09.177Z,18.24
2022-08-25T04:05:35.855Z,18.20
2022-08-25T04:08:02.766Z,18.19
2022-08-25T04:10:30.313Z,18.21
2022-08-25T04:12:57.087Z,18.10
2022-08-25T04:15:24.971Z,18.16
2022-08-25T04:17:59.082Z,18.21
2022-08-25T04:20:26.163Z,18.15
2022-08-25T04:22:53.314Z,18.16
2022-08-25T04:25:20.010Z,18.10
2022-08-25T04:27:46.605Z,18.17
2022-08-25T04:30:13.791Z,18.15
2022-08-25T04:32:40.418Z,18.20
2022-08-25T04:35:07.645Z,18.08
2022-08-25T04:37:35.101Z,18.14
2022-08-25T04:40:02.446Z,18.14
2022-08-25T04:42:29.206Z,18.09
2022-08-25T04:44:55.942Z,18.22
2022-08-25T04:47:22.993Z,18.33
2022-08-25T04:49:49.856Z,18.26
2022-08-25T04:52:16.478Z,18.33
2022-08-25T04:54:43.829Z,18.44
2022-08-25T04:57:10.892Z,18.45
2022-08-25T04:59:38.292Z,18.47
2022-08-25T05:02:06.681Z,18.59
2022-08-25T05:04:35.518Z,18.63
2022-08-25T05:07:03.106Z,18.70
2022-08-25T05:09:32.582Z,18.73
2022-08-25T05:12:00.662Z,18.82
2022-08-25T05:14:27.336Z,18.84
2022-08-25T05:16:55.621Z,18.90
2022-08-25T05:19:24.293Z,18.96
2022-08-25T05:21:52.123Z,18.99
2022-08-25T05:24:19.025Z,19.04
2022-08-25T05:26:46.012Z,19.11
2022-08-25T05:29:13.292Z,19.19
2022-08-25T05:31:44.005Z,19.28
2022-08-25T05:34:12.693Z,19.35
2022-08-25T05:36:43.426Z,19.43
2022-08-25T05:39:11.119Z,19.46
2022-08-25T05:41:38.647Z,19.33
2022-08-25T05:44:05.381Z,19.53
2022-08-25T05:46:32.928Z,19.62
2022-08-25T05:48:59.909Z,19.60
2022-08-25T05:51:26.975Z,19.33
2022-08-25T05:53:54.198Z,19.58
2022-08-25T05:56:21.088Z,19.69
2022-08-25T05:58:48.121Z,19.76
2022-08-25T06:01:45.740Z,19.70
2022-08-25T06:04:13.539Z,19.93
2022-08-25T06:06:40.606Z,19.94
2022-08-25T06:09:09.543Z,19.94
2022-08-25T06:11:40.979Z,20.10
2022-08-25T06:14:09.208Z,20.10
2022-08-25T06:16:36.326Z,20.15
2022-08-25T06:19:03.037Z,20.15
2022-08-25T06:21:29.756Z,20.29
2022-08-25T06:23:56.677Z,20.21
2022-08-25T06:26:23.686Z,20.27
2022-08-25T06:28:51.881Z,20.47
2022-08-25T06:31:19.826Z,20.45
2022-08-25T06:33:46.794Z,20.60
2022-08-25T06:36:13.705Z,20.73
2022-08-25T06:38:40.326Z,20.71
2022-08-25T06:41:08.844Z,20.91
2022-08-25T06:43:35.443Z,20.89
2022-08-25T06:46:36.477Z,21.05
2022-08-25T06:49:05.425Z,20.82
2022-08-25T06:51:32.469Z,21.02
2022-08-25T06:54:00.298Z,20.92
2022-08-25T06:56:26.964Z,21.13
2022-08-25T06:58:53.582Z,21.42
2022-08-25T07:01:27.114Z,21.33
2022-08-25T07:03:57.583Z,21.41
2022-08-25T07:06:25.929Z,21.82
2022-08-25T07:08:53.144Z,21.79
2022-08-25T07:11:21.432Z,21.73
2022-08-25T07:13:49.034Z,22.00
2022-08-25T07:16:17.635Z,21.98
2022-08-25T07:18:45.881Z,22.13
2022-08-25T07:21:13.869Z,22.12
2022-08-25T07:23:41.909Z,22.45
2022-08-25T07:26:35.732Z,22.61
2022-08-25T07:28:59.832Z,22.70
2022-08-25T07:31:29.879Z,22.61
2022-08-25T07:34:15.309Z,22.35
2022-08-25T07:36:43.691Z,21.93
2022-08-25T07:39:11.167Z,21.90
2022-08-25T07:41:40.969Z,21.69
2022-08-25T07:44:09.017Z,21.72
2022-08-25T07:46:35.974Z,22.04
2022-08-25T07:49:02.707Z,22.13
2022-08-25T07:51:29.376Z,22.54
2022-08-25T07:53:56.089Z,22.43
2022-08-25T07:56:23.610Z,22.16
2022-08-25T07:58:51.224Z,21.98
2022-08-25T08:01:20.576Z,22.07
2022-08-25T08:03:50.445Z,22.20
2022-08-25T08:06:21.224Z,22.06
2022-08-25T08:08:50.452Z,22.36
2022-08-25T08:11:23.253Z,23.02
2022-08-25T08:13:51.972Z,23.33
2022-08-25T08:16:20.428Z,23.72
2022-08-25T08:18:47.618Z,23.83
2022-08-25T08:21:23.337Z,24.08
2022-08-25T08:23:55.441Z,24.29
2022-08-25T08:26:36.525Z,24.20
2022-08-25T08:29:12.745Z,24.41
2022-08-25T08:31:39.466Z,24.45
2022-08-25T08:34:06.488Z,24.49
2022-08-25T08:36:33.561Z,24.61
2022-08-25T08:39:00.458Z,24.75
2022-08-25T08:42:11.535Z,24.77
2022-08-25T08:44:45.097Z,24.99
2022-08-25T08:47:42.792Z,25.20
2022-08-25T08:50:32.364Z,25.31
2022-08-25T08:53:16.580Z,25.37
2022-08-25T08:55:55.603Z,25.52
2022-08-25T08:58:28.701Z,25.69
2022-08-25T09:00:58.444Z,25.66
2022-08-25T09:03:42.559Z,25.80
2022-08-25T09:06:22.566Z,25.94
2022-08-25T09:08:49.251Z,25.98
2022-08-25T09:11:19.067Z,25.84
2022-08-25T09:14:30.266Z,25.96
2022-08-25T09:17:06.523Z,26.25
2022-08-25T09:20:18.850Z,26.49
2022-08-25T09:22:47.149Z,26.45
2022-08-25T09:25:39.658Z,26.74
2022-08-25T09:28:32.212Z,26.69
2022-08-25T09:31:13.860Z,26.79
2022-08-25T09:33:40.537Z,26.85
2022-08-25T09:36:09.084Z,26.88
2022-08-25T09:38:36.506Z,27.10
2022-08-25T09:41:03.822Z,27.22
2022-08-25T09:43:52.342Z,27.42
2022-08-25T09:46:28.419Z,27.37
2022-08-25T09:48:57.801Z,27.44
2022-08-25T09:51:42.351Z,27.77
2022-08-25T09:54:12.651Z,28.04
2022-08-25T09:56:55.636Z,28.19
2022-08-25T09:59:34.180Z,28.37
2022-08-25T10:02:08.245Z,28.48
2022-08-25T10:04:38.065Z,28.70
2022-08-25T10:07:27.038Z,28.78
2022-08-25T10:10:02.108Z,28.82
2022-08-25T10:12:42.529Z,28.86
2022-08-25T10:15:39.844Z,28.96
2022-08-25T10:18:15.840Z,28.78
2022-08-25T10:20:44.584Z,28.95
2022-08-25T10:23:13.912Z,29.02
2022-08-25T10:25:57.989Z,29.08
2022-08-25T10:28:32.406Z,28.99
2022-08-25T10:31:24.202Z,29.21
2022-08-25T10:34:09.279Z,29.29
2022-08-25T10:36:41.685Z,29.29
2022-08-25T10:39:44.262Z,29.49
2022-08-25T10:42:19.892Z,29.66
2022-08-25T10:45:21.997Z,29.59
2022-08-25T10:48:07.161Z,29.77
2022-08-25T10:50:40.144Z,29.89
2022-08-25T10:53:18.211Z,29.88
2022-08-25T10:56:07.575Z,30.20
2022-08-25T10:58:47.158Z,30.26
2022-08-25T11:01:32.970Z,30.33
2022-08-25T11:04:15.672Z,30.40
2022-08-25T11:06:54.715Z,30.45
2022-08-25T11:09:36.462Z,30.57
2022-08-25T11:12:09.960Z,30.77
2022-08-25T11:14:43.082Z,30.79
2022-08-25T11:17:19.236Z,30.75
2022-08-25T11:19:50.230Z,30.53
2022-08-25T11:22:34.830Z,30.68
2022-08-25T11:25:20.032Z,30.74
2022-08-25T11:28:00.585Z,30.94
2022-08-25T11:30:27.383Z,31.04
2022-08-25T11:32:55.471Z,31.19
2022-08-25T11:35:34.157Z,30.80
2022-08-25T11:38:27.576Z,30.67
2022-08-25T11:40:55.930Z,30.19
2022-08-25T11:44:13.095Z,30.10
2022-08-25T11:47:24.474Z,29.90
2022-08-25T11:50:04.477Z,29.93
2022-08-25T11:52:34.747Z,30.07
2022-08-25T11:55:27.406Z,30.04
2022-08-25T11:58:34.248Z,29.92
2022-08-25T12:01:03.642Z,29.83
2022-08-25T12:03:36.479Z,29.97
2022-08-25T12:06:21.991Z,30.02
2022-08-25T12:09:00.523Z,29.93
2022-08-25T12:11:42.373Z,30.07
2022-08-25T12:14:16.182Z,30.02
2022-08-25T12:17:04.788Z,30.12
2022-08-25T12:19:34.472Z,29.93
2022-08-25T12:22:04.277Z,29.94
2022-08-25T12:25:20.648Z,29.94
2022-08-25T12:28:35.360Z,29.90
2022-08-25T12:31:17.012Z,29.85
2022-08-25T12:34:02.849Z,29.81
2022-08-25T12:36:33.268Z,29.70
2022-08-25T12:39:18.371Z,29.70
2022-08-25T12:41:55.549Z,29.69
2022-08-25T12:44:40.179Z,29.80
2022-08-25T12:47:32.470Z,29.86
2022-08-25T12:50:33.397Z,29.87
2022-08-25T12:53:19.434Z,29.87
2022-08-25T12:55:54.405Z,29.71
2022-08-25T12:58:31.222Z,30.03
2022-08-25T13:01:32.926Z,29.91
2022-08-25T13:04:28.441Z,30.05
2022-08-25T13:07:23.586Z,30.26
2022-08-25T13:10:14.960Z,30.35
2022-08-25T13:12:51.189Z,30.51
2022-08-25T13:15:29.554Z,30.67
2022-08-25T13:18:13.933Z,30.65
2022-08-25T13:20:40.789Z,30.79
2022-08-25T13:23:11.217Z,30.80
2022-08-25T13:25:47.130Z,30.81
2022-08-25T13:28:27.904Z,30.79
2022-08-25T13:31:15.247Z,30.56
2022-08-25T13:33:58.267Z,30.73
2022-08-25T13:36:54.258Z,30.63
2022-08-25T13:39:52.583Z,30.74
2022-08-25T13:42:16.342Z,30.79
2022-08-25T13:44:52.049Z,30.64
2022-08-25T13:47:43.568Z,30.66
2022-08-25T13:50:28.469Z,30.92
2022-08-25T13:53:01.625Z,31.20
2022-08-25T13:55:51.755Z,31.30
2022-08-25T13:58:39.282Z,31.40
2022-08-25T14:01:48.548Z,31.44
2022-08-25T14:04:24.932Z,31.29
2022-08-25T14:07:25.808Z,31.28
2022-08-25T14:10:02.022Z,31.03
2022-08-25T14:12:49.701Z,30.93
2022-08-25T14:15:22.434Z,30.83
2022-08-25T14:18:01.398Z,30.60
2022-08-25T14:20:31.201Z,30.60
2022-08-25T14:23:02.774Z,30.55
2022-08-25T14:25:30.371Z,30.57
2022-08-25T14:28:08.282Z,30.56
2022-08-25T14:30:39.433Z,30.48
2022-08-25T14:33:07.231Z,30.45
2022-08-25T14:35:34.697Z,30.41
2022-08-25T14:38:12.023Z,30.26
2022-08-25T14:40:39.834Z,30.18
2022-08-25T14:43:10.027Z,30.16
2022-08-25T14:45:40.130Z,29.96
2022-08-25T14:48:10.933Z,29.77
2022-08-25T14:50:41.218Z,29.83
2022-08-25T14:53:11.549Z,29.76
2022-08-25T14:55:39.825Z,29.90
2022-08-25T14:58:07.108Z,29.84
2022-08-25T15:00:45.291Z,29.73
2022-08-25T15:03:16.398Z,29.68
2022-08-25T15:05:44.803Z,29.44
2022-08-25T15:08:33.232Z,29.34
2022-08-25T15:11:00.657Z,29.37
2022-08-25T15:13:27.602Z,29.38
2022-08-25T15:15:55.312Z,29.59
2022-08-25T15:18:25.938Z,29.63
2022-08-25T15:20:52.607Z,29.53
2022-08-25T15:23:19.935Z,29.44
2022-08-25T15:25:49.200Z,29.43
2022-08-25T15:28:21.900Z,29.44
2022-08-25T15:30:49.498Z,29.45
2022-08-25T15:33:16.181Z,29.51
2022-08-25T15:35:43.564Z,29.48
2022-08-25T15:38:12.086Z,29.28
2022-08-25T15:40:39.842Z,29.28
2022-08-25T15:43:07.104Z,29.33
2022-08-25T15:45:36.095Z,29.35
2022-08-25T15:48:04.452Z,29.18
2022-08-25T15:50:34.127Z,29.31
2022-08-25T15:53:00.927Z,29.34
2022-08-25T15:55:27.964Z,29.51
2022-08-25T15:57:55.571Z,29.61
2022-08-25T16:00:22.793Z,29.35
2022-08-25T16:02:50.003Z,29.20
2022-08-25T16:05:16.813Z,29.07
2022-08-25T16:07:46.106Z,29.11
2022-08-25T16:10:18.372Z,29.09
2022-08-25T16:12:45.505Z,29.15
2022-08-25T16:15:12.456Z,28.95
2022-08-25T16:17:40.715Z,29.16
2022-08-25T16:20:13.937Z,29.04
2022-08-25T16:22:41.448Z,29.10
2022-08-25T16:25:08.610Z,28.97
2022-08-25T16:27:38.785Z,29.13
2022-08-25T16:30:07.348Z,29.11
2022-08-25T16:32:35.102Z,29.06
2022-08-25T16:35:02.676Z,29.20
2022-08-25T16:37:29.918Z,29.33
2022-08-25T16:39:57.630Z,29.36
2022-08-25T16:42:26.429Z,29.47
2022-08-25T16:44:54.313Z,29.10
2022-08-25T16:47:25.217Z,29.10
2022-08-25T16:49:53.641Z,29.13
2022-08-25T16:52:38.948Z,28.98
2022-08-25T16:55:14.381Z,28.79
2022-08-25T16:57:43.570Z,28.95
2022-08-25T17:00:14.335Z,28.85
2022-08-25T17:02:42.288Z,28.77
2022-08-25T17:05:10.735Z,28.75
2022-08-25T17:07:37.669Z,28.66
2022-08-25T17:10:05.538Z,28.80
2022-08-25T17:12:32.338Z,28.62
2022-08-25T17:14:59.364Z,28.66
2022-08-25T17:17:27.006Z,28.65
2022-08-25T17:19:54.861Z,28.75
2022-08-25T17:22:22.838Z,28.59
2022-08-25T17:24:53.401Z,28.64
2022-08-25T17:27:26.762Z,28.47
2022-08-25T17:29:53.476Z,28.52
2022-08-25T17:32:20.126Z,28.72
2022-08-25T17:34:46.910Z,28.62
2022-08-25T17:37:13.585Z,28.66
2022-08-25T17:39:40.993Z,28.47
2022-08-25T17:42:07.709Z,28.40
2022-08-25T17:44:35.249Z,28.44
2022-08-25T17:47:04.274Z,28.37
2022-08-25T17:49:31.514Z,28.02
2022-08-25T17:51:58.968Z,28.05
2022-08-25T17:54:25.685Z,28.09
2022-08-25T17:56:52.584Z,28.14
2022-08-25T17:59:19.707Z,28.05
2022-08-25T18:01:46.483Z,27.82
2022-08-25T18:04:17.352Z,27.97
2022-08-25T18:06:45.755Z,28.01
2022-08-25T18:09:12.480Z,27.93
2022-08-25T18:11:39.130Z,27.88
2022-08-25T18:14:05.773Z,27.76
2022-08-25T18:16:32.474Z,27.60
2022-08-25T18:19:01.603Z,27.66
2022-08-25T18:21:30.705Z,27.40
2022-08-25T18:23:58.845Z,27.20
2022-08-25T18:26:26.449Z,27.18
2022-08-25T18:28:53.426Z,26.94
2022-08-25T18:31:20.215Z,27.18
2022-08-25T18:33:47.213Z,27.15
2022-08-25T18:36:18.321Z,27.16
2022-08-25T18:39:04.042Z,27.05
2022-08-25T18:41:35.741Z,27.05
2022-08-25T18:44:03.152Z,27.07
2022-08-25T18:46:29.985Z,26.98
2022-08-25T18:48:56.692Z,27.00
2022-08-25T18:51:23.756Z,26.89
2022-08-25T18:53:54.454Z,26.75
2022-08-25T18:56:26.191Z,26.76
2022-08-25T18:58:53.001Z,26.74
2022-08-25T19:01:21.373Z,26.73
2022-08-25T19:03:48.448Z,26.69
2022-08-25T19:06:15.674Z,26.60
2022-08-25T19:08:42.474Z,26.51
2022-08-25T19:11:10.105Z,26.45
2022-08-25T19:13:37.607Z,26.22
2022-08-25T19:16:38.335Z,26.43
2022-08-25T19:19:06.953Z,26.17
2022-08-25T19:21:34.992Z,25.95
2022-08-25T19:24:03.254Z,26.00
2022-08-25T19:26:30.962Z,25.87
2022-08-25T19:28:57.767Z,25.96
2022-08-25T19:31:26.225Z,25.96
2022-08-25T19:33:54.701Z,25.86
2022-08-25T19:36:24.535Z,25.84
2022-08-25T19:38:58.376Z,25.78
2022-08-25T19:41:27.899Z,25.56
2022-08-25T19:43:56.622Z,25.50
2022-08-25T19:46:35.616Z,25.66
2022-08-25T19:49:15.359Z,25.63
2022-08-25T19:51:45.411Z,25.41
2022-08-25T19:54:16.024Z,25.36
2022-08-25T19:56:54.305Z,25.30
2022-08-25T19:59:42.571Z,25.47
2022-08-25T20:02:17.588Z,25.42
2022-08-25T20:04:49.433Z,25.30
2022-08-25T20:07:19.075Z,25.22
2022-08-25T20:09:45.714Z,25.24
2022-08-25T20:12:12.956Z,25.13
2022-08-25T20:14:40.036Z,24.89
2022-08-25T20:17:23.343Z,24.79
2022-08-25T20:19:56.183Z,24.91
2022-08-25T20:22:26.208Z,24.86
2022-08-25T20:24:57.354Z,24.87
2022-08-25T20:27:30.954Z,24.84
2022-08-25T20:29:57.742Z,25.22
2022-08-25T20:32:24.656Z,24.88
2022-08-25T20:34:53.769Z,24.77
2022-08-25T20:37:22.658Z,24.75
2022-08-25T20:39:49.378Z,24.68
2022-08-25T20:42:16.537Z,24.63
2022-08-25T20:44:43.190Z,24.60
2022-08-25T20:47:11.115Z,24.53
2022-08-25T20:49:43.766Z,24.43
2022-08-25T20:52:11.813Z,24.44
2022-08-25T20:54:38.514Z,24.39
2022-08-25T20:57:05.370Z,24.31
2022-08-25T20:59:34.736Z,24.30
2022-08-25T21:02:01.851Z,24.23
2022-08-25T21:04:30.141Z,24.17
2022-08-25T21:07:00.282Z,24.14
2022-08-25T21:09:28.212Z,24.01
2022-08-25T21:11:57.427Z,23.89
2022-08-25T21:14:26.260Z,23.84
2022-08-25T21:16:53.569Z,23.86
2022-08-25T21:19:26.424Z,23.89
2022-08-25T21:21:54.397Z,23.82
2022-08-25T21:24:28.150Z,23.77
2022-08-25T21:26:57.033Z,23.66
2022-08-25T21:29:25.884Z,23.59
2022-08-25T21:31:56.390Z,23.59
2022-08-25T21:34:23.214Z,23.57
2022-08-25T21:36:49.886Z,23.53
2022-08-25T21:39:16.910Z,23.53
2022-08-25T21:41:45.528Z,23.44
2022-08-25T21:44:13.142Z,23.38
2022-08-25T21:46:42.473Z,23.39
2022-08-25T21:49:20.743Z,23.30
2022-08-25T21:51:47.421Z,23.29
2022-08-25T21:54:17.065Z,23.29
2022-08-25T21:57:00.702Z,23.37
2022-08-25T21:59:31.369Z,23.29
2022-08-25T22:02:04.729Z,23.12
2022-08-25T22:04:32.548Z,22.96
2022-08-25T22:06:59.830Z,23.00
2022-08-25T22:09:28.362Z,22.98
2022-08-25T22:11:55.877Z,23.04
2022-08-25T22:14:26.183Z,23.04
2022-08-25T22:16:54.298Z,23.02
2022-08-25T22:19:21.591Z,22.96
2022-08-25T22:21:51.110Z,22.96
2022-08-25T22:24:18.523Z,22.89
2022-08-25T22:26:47.357Z,22.79
2022-08-25T22:29:25.060Z,22.63
2022-08-25T22:31:58.580Z,22.71
2022-08-25T22:34:32.238Z,22.68
2022-08-25T22:37:03.608Z,22.60
2022-08-25T22:39:32.133Z,22.61
2022-08-25T22:42:00.710Z,22.61
2022-08-25T22:44:27.365Z,22.57
2022-08-25T22:46:54.479Z,22.44
2022-08-25T22:49:21.890Z,22.37
2022-08-25T22:51:48.883Z,22.41
2022-08-25T22:54:15.960Z,22.32
2022-08-25T22:56:43.439Z,22.16
2022-08-25T23:01:38.678Z,22.30
2022-08-25T23:04:07.179Z,22.30
2022-08-25T23:06:34.577Z,22.26
2022-08-25T23:09:02.282Z,22.27
2022-08-25T23:11:29.230Z,22.30
2022-08-25T23:13:58.077Z,22.36
2022-08-25T23:16:25.339Z,22.32
2022-08-25T23:18:52.934Z,22.29
2022-08-25T23:21:41.271Z,22.27
2022-08-25T23:24:10.976Z,22.27
2022-08-25T23:26:41.931Z,22.26
2022-08-25T23:29:18.275Z,22.25
2022-08-25T23:31:46.880Z,22.24
2022-08-25T23:34:15.657Z,22.14
2022-08-25T23:36:43.990Z,22.16
2022-08-25T23:39:10.731Z,22.15
2022-08-25T23:41:37.381Z,22.13
2022-08-25T23:44:05.599Z,22.16
2022-08-25T23:46:35.180Z,22.13
2022-08-25T23:49:04.106Z,22.14
2022-08-25T23:51:37.148Z,22.14
2022-08-25T23:54:09.237Z,22.04
2022-08-25T23:56:44.719Z,22.11
2022-08-25T23:59:18.335Z,22.03
